Time;durP1;ratioP1;P1;durP2;ratioP2;P2;SDS_P1;SDS_P2;PMS_P1;PMS_P2;Temp;Humidity;BMP_temperature;BMP_pressure;BME280_temperature;BME280_humidity;BME280_pressure;Samples;Min_cycle;Max_cycle;Signal;HPM_P1;HPM_P2
2023/08/13 00:00:31;;;;;;;4.30;4.00;;;21.60;1.00;;;;;;5077988;27;20512;-72
2023/08/13 00:02:59;;;;;;;3.97;3.53;;;21.60;1.00;;;;;;5079126;28;20548;-72
2023/08/13 00:05:26;;;;;;;3.93;3.53;;;21.50;1.00;;;;;;5077154;27;20488;-73
2023/08/13 00:07:53;;;;;;;3.60;3.30;;;21.50;1.00;;;;;;5077587;28;21217;-74
2023/08/13 00:10:20;;;;;;;4.07;3.77;;;21.40;1.00;;;;;;5078822;28;21034;-72
2023/08/13 00:12:47;;;;;;;3.40;3.20;;;21.50;1.00;;;;;;5078190;28;20470;-72
2023/08/13 00:15:16;;;;;;;3.67;3.33;;;21.50;1.00;;;;;;5080496;27;20486;-73
2023/08/13 00:17:43;;;;;;;3.40;3.20;;;21.40;1.00;;;;;;5073701;28;20493;-73
2023/08/13 00:20:11;;;;;;;4.30;4.00;;;21.40;1.00;;;;;;5080868;28;20968;-73
2023/08/13 00:22:38;;;;;;;3.73;3.43;;;21.40;1.00;;;;;;5078111;28;20459;-74
2023/08/13 00:25:05;;;;;;;3.50;3.30;;;21.40;1.00;;;;;;5080476;28;20565;-72
2023/08/13 00:27:32;;;;;;;4.17;3.87;;;21.40;1.00;;;;;;5080012;28;20556;-73
2023/08/13 00:29:59;;;;;;;3.77;3.47;;;21.40;1.00;;;;;;5076711;28;20683;-75
2023/08/13 00:32:27;;;;;;;3.73;3.43;;;21.40;1.00;;;;;;5081389;27;20477;-73
2023/08/13 00:34:54;;;;;;;4.40;4.00;;;21.30;1.00;;;;;;5077856;27;20480;-73
2023/08/13 00:37:21;;;;;;;7.47;4.20;;;21.30;1.00;;;;;;5080946;28;20471;-73
2023/08/13 00:39:48;;;;;;;4.37;3.97;;;21.30;1.00;;;;;;5076960;28;20548;-73
2023/08/13 00:42:15;;;;;;;4.10;3.70;;;21.30;1.00;;;;;;5080247;28;20856;-75
2023/08/13 00:44:42;;;;;;;3.83;3.53;;;21.20;1.00;;;;;;5075867;28;20504;-73
2023/08/13 00:47:10;;;;;;;4.07;3.77;;;21.20;1.00;;;;;;5078495;28;21297;-75
2023/08/13 00:49:38;;;;;;;4.30;3.90;;;21.20;1.00;;;;;;5079243;28;20503;-72
2023/08/13 00:52:06;;;;;;;3.90;3.60;;;21.20;1.00;;;;;;5077524;28;20466;-73
2023/08/13 00:54:33;;;;;;;4.00;3.70;;;21.20;1.00;;;;;;5075283;28;20536;-73
2023/08/13 00:57:00;;;;;;;4.10;3.80;;;21.20;1.00;;;;;;5079818;28;21011;-73
2023/08/13 00:59:28;;;;;;;3.90;3.60;;;21.20;1.00;;;;;;5077570;28;20488;-73
2023/08/13 01:01:55;;;;;;;4.40;4.10;;;21.10;1.00;;;;;;5078719;22;20549;-79
2023/08/13 01:04:22;;;;;;;4.53;4.13;;;21.20;1.00;;;;;;5057930;28;20494;-78
2023/08/13 01:07:02;;;;;;;3.83;3.60;;;21.10;1.00;;;;;;5059125;28;20842;-77
2023/08/13 01:09:38;;;;;;;3.67;3.37;;;21.10;1.00;;;;;;5057583;28;20846;-78
2023/08/13 01:12:20;;;;;;;4.00;3.70;;;21.10;1.00;;;;;;5041746;28;20485;-78
2023/08/13 01:15:05;;;;;;;4.00;3.70;;;21.10;1.00;;;;;;5050110;28;20561;-78
2023/08/13 01:17:35;;;;;;;3.40;3.20;;;21.10;1.00;;;;;;5058824;28;20536;-77
2023/08/13 01:20:05;;;;;;;5.10;4.13;;;21.00;1.00;;;;;;5058686;28;20539;-78
2023/08/13 01:22:37;;;;;;;4.90;3.93;;;21.10;1.00;;;;;;5057822;28;20573;-77
2023/08/13 01:25:06;;;;;;;6.67;5.97;;;21.00;1.00;;;;;;5060561;28;20512;-78
2023/08/13 01:27:42;;;;;;;4.30;4.00;;;21.10;1.00;;;;;;5027969;28;20476;-77
2023/08/13 01:30:15;;;;;;;4.47;4.07;;;21.00;1.00;;;;;;5060680;28;20471;-78
2023/08/13 01:32:48;;;;;;;4.17;3.77;;;21.00;1.00;;;;;;5057555;28;21763;-77
2023/08/13 01:35:18;;;;;;;4.60;4.27;;;20.90;1.00;;;;;;5047574;28;20996;-77
2023/08/13 01:37:48;;;;;;;4.67;4.27;;;21.00;1.00;;;;;;5057452;28;20515;-78
2023/08/13 01:40:15;;;;;;;4.87;4.47;;;20.90;1.00;;;;;;5058013;28;20568;-78
2023/08/13 01:42:42;;;;;;;4.30;3.90;;;20.90;1.00;;;;;;5061506;28;20485;-77
2023/08/13 01:45:10;;;;;;;4.60;4.20;;;20.90;1.00;;;;;;5060374;28;20430;-78
2023/08/13 01:47:39;;;;;;;4.20;3.90;;;21.00;1.00;;;;;;5057862;28;21188;-78
2023/08/13 01:50:08;;;;;;;4.33;4.03;;;21.00;1.00;;;;;;5056732;28;20603;-78
2023/08/13 01:52:34;;;;;;;4.97;4.47;;;21.10;1.00;;;;;;5060874;28;20548;-79
2023/08/13 01:55:07;;;;;;;5.20;4.73;;;21.20;1.00;;;;;;5063106;28;20460;-78
2023/08/13 01:57:34;;;;;;;4.77;4.37;;;21.30;1.00;;;;;;5063501;28;20562;-77
2023/08/13 02:00:01;;;;;;;5.47;4.63;;;21.40;1.00;;;;;;5062642;28;20501;-78
2023/08/13 02:02:30;;;;;;;4.73;4.30;;;21.40;1.00;;;;;;5060844;28;20964;-78
2023/08/13 02:04:57;;;;;;;5.17;4.67;;;21.40;1.00;;;;;;5060438;28;20474;-78
2023/08/13 02:07:24;;;;;;;5.43;4.93;;;21.40;1.00;;;;;;5058544;28;20583;-79
2023/08/13 02:09:51;;;;;;;6.50;4.70;;;21.40;1.00;;;;;;5055303;28;20470;-78
2023/08/13 02:12:19;;;;;;;4.77;4.33;;;21.50;1.00;;;;;;5051998;28;21107;-78
2023/08/13 02:14:46;;;;;;;5.40;5.00;;;21.50;1.00;;;;;;5062869;28;20559;-77
2023/08/13 02:17:14;;;;;;;4.93;4.43;;;21.50;1.00;;;;;;5059455;28;20548;-79
2023/08/13 02:19:41;;;;;;;4.70;4.30;;;21.50;1.00;;;;;;5059977;28;20452;-78
2023/08/13 02:22:09;;;;;;;4.87;4.47;;;21.40;1.00;;;;;;5062370;28;20600;-79
2023/08/13 02:24:36;;;;;;;5.47;4.23;;;21.30;1.00;;;;;;5061388;28;20450;-79
2023/08/13 02:27:03;;;;;;;4.70;4.37;;;21.30;1.00;;;;;;5061496;28;20579;-78
2023/08/13 02:29:32;;;;;;;5.00;4.60;;;21.30;1.00;;;;;;5061796;28;20682;-78
2023/08/13 02:31:59;;;;;;;5.10;4.63;;;21.30;1.00;;;;;;5062359;28;20443;-78
2023/08/13 02:34:26;;;;;;;5.03;4.53;;;21.20;1.00;;;;;;5065119;28;20526;-77
2023/08/13 02:36:53;;;;;;;4.57;4.10;;;21.30;1.00;;;;;;5063785;28;20520;-79
2023/08/13 02:39:21;;;;;;;4.63;4.23;;;21.20;1.00;;;;;;5064342;28;20467;-79
2023/08/13 02:41:48;;;;;;;4.80;4.43;;;21.20;1.00;;;;;;5056049;28;20463;-79
2023/08/13 02:44:16;;;;;;;4.50;4.20;;;21.20;1.00;;;;;;5060079;28;20560;-78
2023/08/13 02:46:46;;;;;;;4.80;4.40;;;21.10;1.00;;;;;;5060264;28;20794;-78
2023/08/13 02:49:13;;;;;;;4.47;4.07;;;21.10;1.00;;;;;;5060553;28;20971;-78
2023/08/13 02:51:40;;;;;;;4.50;4.10;;;21.00;1.00;;;;;;5063464;28;20555;-78
2023/08/13 02:54:07;;;;;;;4.90;4.40;;;20.90;1.00;;;;;;5063135;28;20435;-79
2023/08/13 02:56:34;;;;;;;4.90;4.50;;;20.80;1.00;;;;;;5064476;28;21017;-79
2023/08/13 02:59:01;;;;;;;5.20;4.80;;;20.80;1.00;;;;;;5060650;28;22316;-79
2023/08/13 03:01:28;;;;;;;4.87;4.50;;;20.80;1.00;;;;;;5023633;28;20563;-79
2023/08/13 03:04:00;;;;;;;5.10;4.70;;;20.80;1.00;;;;;;5019337;28;20879;-78
2023/08/13 03:06:27;;;;;;;5.90;4.87;;;20.80;1.00;;;;;;5023576;28;20469;-79
2023/08/13 03:08:54;;;;;;;4.80;4.40;;;20.80;1.00;;;;;;5022950;28;20476;-78
2023/08/13 03:11:21;;;;;;;4.83;4.43;;;20.90;1.00;;;;;;5020108;28;20473;-79
2023/08/13 03:13:48;;;;;;;4.50;4.07;;;20.90;1.00;;;;;;5018982;28;20473;-79
2023/08/13 03:16:15;;;;;;;5.50;4.47;;;20.90;1.00;;;;;;5017703;28;20492;-79
2023/08/13 03:18:43;;;;;;;4.77;4.37;;;20.80;1.00;;;;;;5018741;28;20459;-78
2023/08/13 03:21:11;;;;;;;4.87;4.47;;;20.80;1.00;;;;;;5020185;28;20559;-79
2023/08/13 03:23:38;;;;;;;5.73;5.27;;;20.80;1.00;;;;;;5020842;28;20910;-79
2023/08/13 03:26:05;;;;;;;6.70;4.60;;;20.80;1.00;;;;;;5020937;28;20515;-78
2023/08/13 03:28:32;;;;;;;5.43;4.87;;;20.70;1.00;;;;;;5019875;28;20522;-76
2023/08/13 03:31:00;;;;;;;4.87;4.40;;;20.60;1.00;;;;;;5017841;28;21081;-77
2023/08/13 03:33:27;;;;;;;5.97;5.37;;;20.60;1.00;;;;;;5018780;28;20564;-77
2023/08/13 03:35:54;;;;;;;5.63;4.97;;;20.60;1.00;;;;;;5023557;28;20512;-77
2023/08/13 03:38:23;;;;;;;5.47;4.97;;;20.50;1.00;;;;;;5020269;28;21548;-78
2023/08/13 03:40:49;;;;;;;4.87;4.47;;;20.50;1.00;;;;;;5021010;28;20490;-78
2023/08/13 03:43:17;;;;;;;5.30;4.80;;;20.40;1.00;;;;;;5015163;28;20536;-78
2023/08/13 03:45:44;;;;;;;4.43;4.03;;;20.40;1.00;;;;;;5014052;28;21057;-78
2023/08/13 03:48:11;;;;;;;5.47;3.70;;;20.30;1.00;;;;;;5019978;28;20718;-78
2023/08/13 03:50:41;;;;;;;4.23;3.93;;;20.30;1.00;;;;;;5013581;28;20544;-78
2023/08/13 03:53:09;;;;;;;4.13;3.83;;;20.20;1.00;;;;;;5020111;28;20488;-78
2023/08/13 03:55:37;;;;;;;4.03;3.63;;;20.20;1.00;;;;;;5021656;28;20514;-78
2023/08/13 03:58:05;;;;;;;5.27;3.90;;;20.20;1.00;;;;;;5020413;28;20530;-78
2023/08/13 04:00:32;;;;;;;7.13;4.17;;;20.20;1.00;;;;;;5018219;28;20488;-77
2023/08/13 04:02:59;;;;;;;4.20;3.80;;;20.20;1.00;;;;;;5048732;28;20471;-78
2023/08/13 04:05:26;;;;;;;4.57;4.17;;;20.10;1.00;;;;;;5032342;28;20509;-78
2023/08/13 04:07:53;;;;;;;4.90;4.40;;;20.20;1.00;;;;;;5052957;28;20460;-77
2023/08/13 04:10:20;;;;;;;4.50;4.20;;;20.20;1.00;;;;;;5057773;28;20597;-78
2023/08/13 04:12:49;;;;;;;4.43;4.03;;;20.20;1.00;;;;;;5059853;28;20596;-77
2023/08/13 04:15:16;;;;;;;4.20;3.90;;;20.20;1.00;;;;;;5053997;28;20487;-77
2023/08/13 04:17:43;;;;;;;4.33;4.00;;;20.30;1.00;;;;;;5055998;28;20466;-78
2023/08/13 04:20:11;;;;;;;4.20;3.80;;;20.30;1.00;;;;;;5061796;28;20574;-78
2023/08/13 04:22:38;;;;;;;4.60;4.20;;;20.30;1.00;;;;;;5060183;28;20471;-78
2023/08/13 04:25:07;;;;;;;6.17;4.00;;;20.30;1.00;;;;;;5061366;28;20501;-78
2023/08/13 04:27:34;;;;;;;3.93;3.53;;;20.30;1.00;;;;;;5061577;28;20465;-77
2023/08/13 04:30:02;;;;;;;3.57;3.27;;;20.40;1.00;;;;;;5058543;28;20454;-77
2023/08/13 04:32:31;;;;;;;4.30;3.90;;;20.40;1.00;;;;;;5059166;28;20536;-77
2023/08/13 04:34:59;;;;;;;3.47;3.17;;;20.40;1.00;;;;;;5057123;28;20897;-78
2023/08/13 04:37:26;;;;;;;4.63;3.80;;;20.50;1.00;;;;;;5058355;28;21009;-77
2023/08/13 04:39:53;;;;;;;4.43;4.03;;;20.40;1.00;;;;;;5059405;28;20466;-78
2023/08/13 04:42:20;;;;;;;4.17;3.47;;;20.50;1.00;;;;;;5062206;28;20571;-78
2023/08/13 04:44:47;;;;;;;4.23;3.83;;;20.50;1.00;;;;;;5059514;28;20567;-78
2023/08/13 04:47:15;;;;;;;7.10;4.00;;;20.50;1.00;;;;;;5059456;28;20863;-78
2023/08/13 04:49:42;;;;;;;4.27;3.87;;;20.50;1.00;;;;;;5055215;28;20512;-78
2023/08/13 04:52:10;;;;;;;9.03;4.33;;;20.50;1.00;;;;;;5057080;28;20546;-78
2023/08/13 04:54:37;;;;;;;4.80;4.10;;;20.60;1.00;;;;;;5041502;28;20922;-78
2023/08/13 04:57:04;;;;;;;5.13;4.10;;;20.70;1.00;;;;;;5063780;28;20586;-78
2023/08/13 04:59:31;;;;;;;5.83;4.00;;;20.70;1.00;;;;;;5056747;28;20497;-78
2023/08/13 05:01:58;;;;;;;4.57;3.93;;;20.70;1.00;;;;;;5053527;28;21913;-79
2023/08/13 05:04:26;;;;;;;4.47;4.00;;;20.80;1.00;;;;;;5059436;28;20569;-78
2023/08/13 05:06:53;;;;;;;6.67;3.97;;;20.80;1.00;;;;;;5056850;28;20468;-78
2023/08/13 05:09:20;;;;;;;5.73;4.23;;;20.90;1.00;;;;;;5057271;28;20451;-78
2023/08/13 05:11:47;;;;;;;4.00;3.60;;;21.00;1.00;;;;;;5058203;28;20418;-78
2023/08/13 05:14:14;;;;;;;5.07;3.80;;;21.00;1.00;;;;;;5057749;28;20557;-77
2023/08/13 05:16:41;;;;;;;3.87;3.47;;;21.00;1.00;;;;;;5056986;28;20605;-78
2023/08/13 05:19:09;;;;;;;4.27;3.80;;;21.10;1.00;;;;;;5058553;28;20549;-77
2023/08/13 05:21:39;;;;;;;5.73;3.30;;;21.10;1.00;;;;;;5058214;28;20885;-77
2023/08/13 05:24:07;;;;;;;3.90;3.43;;;21.20;1.00;;;;;;5056410;28;20482;-78
2023/08/13 05:26:34;;;;;;;8.73;3.37;;;21.20;1.00;;;;;;5058905;28;20527;-78
2023/08/13 05:29:01;;;;;;;4.00;3.70;;;21.20;1.00;;;;;;5062368;28;20486;-77
2023/08/13 05:31:28;;;;;;;5.37;3.53;;;21.30;1.00;;;;;;5054052;28;20464;-77
2023/08/13 05:33:57;;;;;;;4.80;3.17;;;21.40;1.00;;;;;;5059583;28;20488;-79
2023/08/13 05:36:24;;;;;;;3.30;3.00;;;21.60;1.00;;;;;;5056014;28;20468;-78
2023/08/13 05:38:53;;;;;;;3.27;2.77;;;21.70;1.00;;;;;;5056917;28;20472;-77
2023/08/13 05:41:20;;;;;;;6.20;2.83;;;21.80;1.00;;;;;;5046665;28;20457;-78
2023/08/13 05:43:47;;;;;;;7.30;5.30;;;21.90;1.00;;;;;;5051725;28;20831;-78
2023/08/13 05:46:14;;;;;;;3.90;3.57;;;22.10;1.00;;;;;;5059227;28;20471;-78
2023/08/13 05:48:42;;;;;;;5.20;3.57;;;22.10;1.00;;;;;;5056901;28;20479;-77
2023/08/13 05:51:09;;;;;;;4.00;3.37;;;22.10;1.00;;;;;;5058910;28;20443;-78
2023/08/13 05:53:38;;;;;;;3.30;3.00;;;22.10;1.00;;;;;;5059936;28;20488;-77
2023/08/13 05:56:06;;;;;;;9.70;3.13;;;22.20;1.00;;;;;;5057005;28;20463;-79
2023/08/13 05:58:33;;;;;;;5.70;3.50;;;22.20;1.00;;;;;;5057188;28;20540;-79
2023/08/13 06:01:01;;;;;;;4.83;2.67;;;22.20;1.00;;;;;;5057763;28;20464;-78
2023/08/13 06:03:28;;;;;;;4.10;2.80;;;22.20;1.00;;;;;;5057861;28;20515;-78
2023/08/13 06:05:55;;;;;;;3.60;2.77;;;22.30;1.00;;;;;;5056647;28;20439;-78
2023/08/13 06:08:23;;;;;;;4.30;3.50;;;22.30;1.00;;;;;;5058282;28;20565;-78
2023/08/13 06:10:49;;;;;;;3.70;3.27;;;22.40;1.00;;;;;;5060178;28;20806;-78
2023/08/13 06:13:18;;;;;;;5.40;3.33;;;22.50;1.00;;;;;;5055470;28;21320;-81
2023/08/13 06:15:45;;;;;;;5.53;3.00;;;22.60;1.00;;;;;;5058988;28;20483;-80
2023/08/13 06:18:13;;;;;;;4.90;2.60;;;22.50;1.00;;;;;;5059410;28;20478;-80
2023/08/13 06:20:40;;;;;;;4.03;3.20;;;22.50;1.00;;;;;;5061051;28;20527;-79
2023/08/13 06:23:07;;;;;;;5.07;3.97;;;22.40;1.00;;;;;;5056697;28;20493;-79
2023/08/13 06:25:34;;;;;;;4.17;3.33;;;22.30;1.00;;;;;;5052331;28;20551;-81
2023/08/13 06:28:02;;;;;;;3.57;3.13;;;22.20;1.00;;;;;;5058810;28;20546;-79
2023/08/13 06:30:30;;;;;;;4.90;2.87;;;22.00;1.00;;;;;;5056047;28;20573;-78
2023/08/13 06:32:57;;;;;;;3.40;2.80;;;22.00;1.00;;;;;;5060813;28;20500;-80
2023/08/13 06:35:24;;;;;;;2.93;2.63;;;22.00;1.00;;;;;;5059033;28;20482;-80
2023/08/13 06:37:52;;;;;;;5.33;3.27;;;22.00;1.00;;;;;;5058414;28;20440;-80
2023/08/13 06:40:19;;;;;;;3.63;3.10;;;22.20;1.00;;;;;;5057536;28;20500;-79
2023/08/13 06:42:46;;;;;;;4.90;3.20;;;22.40;1.00;;;;;;5061161;28;20554;-80
2023/08/13 06:45:13;;;;;;;3.73;3.27;;;22.50;1.00;;;;;;5061226;28;20450;-78
2023/08/13 06:47:42;;;;;;;3.80;3.33;;;22.60;1.00;;;;;;5058536;28;20458;-79
2023/08/13 06:50:10;;;;;;;5.13;2.87;;;22.60;1.00;;;;;;5063964;28;20461;-79
2023/08/13 06:52:36;;;;;;;5.00;2.93;;;22.60;1.00;;;;;;5061544;28;20455;-80
2023/08/13 06:55:04;;;;;;;4.10;3.43;;;22.80;1.00;;;;;;5058824;28;20477;-79
2023/08/13 06:57:31;;;;;;;7.50;3.40;;;22.90;1.00;;;;;;5062515;28;20476;-80
2023/08/13 06:59:59;;;;;;;3.50;3.20;;;23.00;1.00;;;;;;5060330;28;20548;-79
2023/08/13 07:02:26;;;;;;;4.13;3.73;;;23.10;1.00;;;;;;5033719;28;20480;-79
2023/08/13 07:04:56;;;;;;;3.17;2.83;;;22.90;1.00;;;;;;5061276;28;20549;-80
2023/08/13 07:07:23;;;;;;;6.10;4.00;;;23.00;1.00;;;;;;5064592;28;20477;-78
2023/08/13 07:09:50;;;;;;;4.83;3.40;;;23.00;1.00;;;;;;5064334;28;20494;-78
2023/08/13 07:12:17;;;;;;;3.50;3.20;;;22.90;1.00;;;;;;5056925;28;21281;-78
2023/08/13 07:14:45;;;;;;;3.50;2.93;;;22.80;1.00;;;;;;5057826;28;20452;-79
2023/08/13 07:17:13;;;;;;;4.20;3.80;;;22.80;1.00;;;;;;5058853;28;20459;-79
2023/08/13 07:19:41;;;;;;;3.10;2.80;;;22.70;1.00;;;;;;5060700;28;20960;-80
2023/08/13 07:22:13;;;;;;;4.00;2.63;;;22.60;1.00;;;;;;5059890;28;20761;-80
2023/08/13 07:24:41;;;;;;;4.53;3.50;;;22.70;1.00;;;;;;5060699;28;20441;-81
2023/08/13 07:27:12;;;;;;;3.43;3.13;;;22.80;1.00;;;;;;5064579;28;21055;-80
2023/08/13 07:29:39;;;;;;;5.30;3.33;;;22.80;1.00;;;;;;5064230;28;20460;-80
2023/08/13 07:32:06;;;;;;;4.60;3.10;;;22.80;1.00;;;;;;5059780;28;20556;-79
2023/08/13 07:34:33;;;;;;;6.50;3.80;;;22.80;1.00;;;;;;5060472;28;20458;-80
2023/08/13 07:37:00;;;;;;;3.70;3.17;;;22.80;1.00;;;;;;5060108;28;20446;-78
2023/08/13 07:39:30;;;;;;;5.13;3.20;;;22.90;1.00;;;;;;5063226;28;20520;-80
2023/08/13 07:41:57;;;;;;;5.80;2.73;;;22.90;1.00;;;;;;5044507;28;20485;-79
2023/08/13 07:44:25;;;;;;;4.93;3.40;;;23.00;1.00;;;;;;5059282;28;20477;-79
2023/08/13 07:46:58;;;;;;;6.00;3.20;;;23.00;1.00;;;;;;5060450;28;20513;-81
2023/08/13 07:49:26;;;;;;;4.43;3.33;;;23.20;1.00;;;;;;5060727;28;20611;-80
2023/08/13 07:51:53;;;;;;;3.83;2.80;;;23.40;1.00;;;;;;5062096;28;20528;-78
2023/08/13 07:54:21;;;;;;;9.17;3.70;;;23.50;1.00;;;;;;5064577;28;20459;-80
2023/08/13 07:56:49;;;;;;;4.60;3.03;;;23.70;1.00;;;;;;5067238;28;20419;-79
2023/08/13 07:59:16;;;;;;;5.87;2.73;;;23.70;1.00;;;;;;5065306;28;20532;-79
2023/08/13 08:01:44;;;;;;;4.20;2.53;;;23.80;1.00;;;;;;5060824;28;20502;-80
2023/08/13 08:04:11;;;;;;;4.20;3.27;;;23.90;1.00;;;;;;5062609;28;20448;-78
2023/08/13 08:06:38;;;;;;;5.47;3.50;;;24.10;1.00;;;;;;5066353;28;20472;-79
2023/08/13 08:09:06;;;;;;;4.03;2.93;;;24.20;1.00;;;;;;5064134;28;20991;-79
2023/08/13 08:11:33;;;;;;;5.67;3.40;;;24.30;1.00;;;;;;5064319;28;20535;-79
2023/08/13 08:14:04;;;;;;;4.13;3.03;;;24.60;1.00;;;;;;5065445;28;20527;-78
2023/08/13 08:16:34;;;;;;;5.20;3.20;;;24.90;1.00;;;;;;5060659;28;20490;-79
2023/08/13 08:19:01;;;;;;;4.60;3.07;;;25.10;1.00;;;;;;5062336;28;20500;-81
2023/08/13 08:21:27;;;;;;;7.50;3.33;;;25.10;1.00;;;;;;5063412;28;20493;-79
2023/08/13 08:23:54;;;;;;;8.60;3.00;;;25.10;1.00;;;;;;5063133;28;20544;-81
2023/08/13 08:26:22;;;;;;;4.63;3.03;;;25.00;1.00;;;;;;5063539;28;20479;-79
2023/08/13 08:28:49;;;;;;;5.00;2.43;;;25.10;1.00;;;;;;5061702;28;20465;-79
2023/08/13 08:31:17;;;;;;;11.90;3.30;;;24.90;1.00;;;;;;5062192;28;20467;-78
2023/08/13 08:33:44;;;;;;;8.20;2.80;;;24.80;1.00;;;;;;5061883;28;20465;-79
2023/08/13 08:36:13;;;;;;;5.37;2.83;;;24.90;1.00;;;;;;5059689;28;20474;-79
2023/08/13 08:38:40;;;;;;;4.43;2.97;;;25.10;1.00;;;;;;5063483;28;20430;-82
2023/08/13 08:41:10;;;;;;;4.87;2.90;;;25.10;1.00;;;;;;5060343;28;20501;-80
2023/08/13 08:43:39;;;;;;;6.00;2.50;;;25.10;1.00;;;;;;5065495;28;20472;-80
2023/08/13 08:46:10;;;;;;;6.40;2.60;;;25.10;1.00;;;;;;5061007;28;20843;-79
2023/08/13 08:48:40;;;;;;;3.90;2.53;;;25.10;1.00;;;;;;5062089;28;20478;-78
2023/08/13 08:51:08;;;;;;;3.23;2.73;;;25.20;1.00;;;;;;5064278;28;21282;-81
2023/08/13 08:53:35;;;;;;;3.03;2.70;;;25.30;1.00;;;;;;5064215;28;20538;-78
2023/08/13 08:56:02;;;;;;;3.10;2.50;;;25.50;1.00;;;;;;5065793;28;20448;-78
2023/08/13 08:58:29;;;;;;;3.30;2.67;;;25.60;1.00;;;;;;5062519;28;20469;-77
2023/08/13 09:01:00;;;;;;;3.83;2.50;;;25.70;1.00;;;;;;5064023;28;20484;-80
2023/08/13 09:03:27;;;;;;;4.27;2.93;;;25.80;1.00;;;;;;5061899;28;20458;-79
2023/08/13 09:05:56;;;;;;;4.20;2.67;;;25.80;1.00;;;;;;5060400;28;20822;-77
2023/08/13 09:08:24;;;;;;;2.37;2.17;;;25.90;1.00;;;;;;5060745;28;21064;-79
2023/08/13 09:10:51;;;;;;;3.80;2.60;;;26.10;1.00;;;;;;5066223;28;20474;-77
2023/08/13 09:13:18;;;;;;;5.17;2.63;;;26.20;1.00;;;;;;5060553;28;20486;-79
2023/08/13 09:15:45;;;;;;;4.07;2.10;;;26.20;1.00;;;;;;5059095;28;20593;-78
2023/08/13 09:18:12;;;;;;;4.30;2.73;;;26.20;1.00;;;;;;5059329;28;20494;-78
2023/08/13 09:20:44;;;;;;;3.50;2.60;;;26.50;1.00;;;;;;5059394;28;20906;-77
2023/08/13 09:23:19;;;;;;;2.83;2.27;;;26.60;1.00;;;;;;5056403;28;20472;-78
2023/08/13 09:25:46;;;;;;;5.83;2.30;;;26.70;1.00;;;;;;5058844;28;20554;-76
2023/08/13 09:28:14;;;;;;;5.37;2.30;;;26.90;1.00;;;;;;5062804;28;21043;-79
2023/08/13 09:30:41;;;;;;;2.57;2.37;;;27.00;1.00;;;;;;5062843;28;20483;-82
2023/08/13 09:33:10;;;;;;;3.30;3.00;;;27.00;1.00;;;;;;5060753;28;20453;-81
2023/08/13 09:35:37;;;;;;;3.33;2.63;;;27.20;1.00;;;;;;5060372;28;20461;-80
2023/08/13 09:38:04;;;;;;;3.53;2.50;;;27.30;1.00;;;;;;5065913;28;20493;-80
2023/08/13 09:40:32;;;;;;;2.40;2.20;;;27.60;1.00;;;;;;5063193;28;20437;-79
2023/08/13 09:43:00;;;;;;;3.70;2.57;;;28.30;1.00;;;;;;5063652;28;20488;-79
2023/08/13 09:45:28;;;;;;;3.47;2.50;;;29.70;1.00;;;;;;5067527;28;20545;-84
2023/08/13 09:47:56;;;;;;;4.53;2.40;;;30.80;1.00;;;;;;5061685;28;20498;-81
2023/08/13 09:50:29;;;;;;;3.23;2.53;;;31.70;1.00;;;;;;5065882;28;20464;-81
2023/08/13 09:52:58;;;;;;;4.30;2.53;;;32.50;1.00;;;;;;5063788;28;20443;-80
2023/08/13 09:55:30;;;;;;;3.40;2.10;;;33.60;1.00;;;;;;5068593;28;20479;-81
2023/08/13 09:58:01;;;;;;;3.50;2.30;;;34.40;1.00;;;;;;5065925;28;21066;-82
2023/08/13 10:00:30;;;;;;;3.20;2.40;;;35.00;1.00;;;;;;5064137;28;20470;-82
2023/08/13 10:02:57;;;;;;;3.73;2.70;;;35.50;1.00;;;;;;5067106;28;20525;-83
2023/08/13 10:05:28;;;;;;;4.63;2.80;;;36.00;1.00;;;;;;5064426;28;20467;-83
2023/08/13 10:07:56;;;;;;;4.73;2.33;;;36.20;1.00;;;;;;5065562;28;20509;-82
2023/08/13 10:10:24;;;;;;;2.73;2.33;;;36.50;1.00;;;;;;5062754;28;20486;-82
2023/08/13 10:12:52;;;;;;;3.70;2.40;;;36.70;1.00;;;;;;5066623;28;20498;-81
2023/08/13 10:15:23;;;;;;;3.50;2.20;;;35.90;1.00;;;;;;5068777;28;20902;-82
2023/08/13 10:17:52;;;;;;;3.73;2.50;;;36.30;1.00;;;;;;5069546;28;20477;-82
2023/08/13 10:20:19;;;;;;;3.60;2.90;;;36.20;1.00;;;;;;5064093;28;20467;-82
2023/08/13 10:22:47;;;;;;;3.80;2.43;;;36.80;1.00;;;;;;5065101;28;20447;-82
2023/08/13 10:25:27;;;;;;;3.63;2.53;;;37.30;1.00;;;;;;5069562;28;20432;-82
2023/08/13 10:27:55;;;;;;;3.57;2.70;;;37.80;1.00;;;;;;5084288;28;20578;-83
2023/08/13 10:30:24;;;;;;;4.37;2.50;;;37.80;1.00;;;;;;5068976;28;20470;-82
2023/08/13 10:32:54;;;;;;;4.07;2.80;;;37.70;1.00;;;;;;5069829;28;20428;-82
2023/08/13 10:35:23;;;;;;;2.90;2.30;;;37.10;1.00;;;;;;5069326;28;20451;-81
2023/08/13 10:37:53;;;;;;;3.80;2.77;;;37.00;1.00;;;;;;5071037;28;20501;-82
2023/08/13 10:40:21;;;;;;;2.60;2.40;;;36.60;1.00;;;;;;5068428;28;20538;-82
2023/08/13 10:42:53;;;;;;;2.53;2.33;;;36.00;1.00;;;;;;5066182;28;20557;-83
2023/08/13 10:45:21;;;;;;;3.60;3.30;;;36.10;1.00;;;;;;5064883;28;20872;-82
2023/08/13 10:47:52;;;;;;;3.27;2.57;;;36.30;1.00;;;;;;5071746;28;20467;-81
2023/08/13 10:50:27;;;;;;;2.67;2.47;;;36.80;1.00;;;;;;5067516;28;21669;-82
2023/08/13 10:52:55;;;;;;;3.37;2.30;;;36.10;1.00;;;;;;5067697;28;20459;-82
2023/08/13 10:55:25;;;;;;;4.83;2.40;;;35.80;1.00;;;;;;5068446;28;20471;-82
2023/08/13 10:57:53;;;;;;;4.30;3.37;;;35.40;1.00;;;;;;5068719;28;20438;-82
2023/08/13 11:00:23;;;;;;;4.00;2.37;;;34.90;1.00;;;;;;5066419;28;20955;-81
2023/08/13 11:02:58;;;;;;;4.53;2.27;;;33.40;1.00;;;;;;5064870;28;20451;-82
2023/08/13 11:05:25;;;;;;;3.87;2.80;;;33.50;1.00;;;;;;5065177;28;20458;-81
2023/08/13 11:07:52;;;;;;;2.80;2.10;;;33.70;1.00;;;;;;5065143;28;20455;-81
2023/08/13 11:10:20;;;;;;;4.10;2.90;;;33.10;1.00;;;;;;5065679;28;20571;-82
2023/08/13 11:12:48;;;;;;;3.17;2.80;;;32.20;1.00;;;;;;5070398;28;20475;-83
2023/08/13 11:15:16;;;;;;;4.63;3.60;;;32.40;1.00;;;;;;5069599;28;20459;-83
2023/08/13 11:17:46;;;;;;;2.90;2.70;;;33.70;1.00;;;;;;5066151;28;20500;-82
2023/08/13 11:20:17;;;;;;;2.60;1.90;;;34.90;1.00;;;;;;5064746;28;20516;-82
2023/08/13 11:22:44;;;;;;;2.90;2.37;;;35.60;1.00;;;;;;5067375;28;20513;-81
2023/08/13 11:25:11;;;;;;;5.17;4.53;;;34.30;1.00;;;;;;5063473;28;20510;-81
2023/08/13 11:27:39;;;;;;;2.77;2.37;;;33.50;1.00;;;;;;5064104;28;20531;-80
2023/08/13 11:30:08;;;;;;;6.70;2.57;;;32.60;1.00;;;;;;5066287;28;20542;-79
2023/08/13 11:32:37;;;;;;;2.60;2.40;;;31.70;1.00;;;;;;5066343;28;20492;-79
2023/08/13 11:35:09;;;;;;;4.03;3.13;;;32.00;1.00;;;;;;5054755;28;20445;-80
2023/08/13 11:37:38;;;;;;;3.23;2.93;;;31.10;1.00;;;;;;5068179;28;20451;-80
2023/08/13 11:40:07;;;;;;;2.87;2.60;;;30.90;1.00;;;;;;5066209;28;20507;-80
2023/08/13 11:42:34;;;;;;;4.30;2.57;;;30.80;1.00;;;;;;5067283;28;20453;-80
2023/08/13 11:45:03;;;;;;;3.53;2.40;;;30.80;1.00;;;;;;5068993;28;20491;-80
2023/08/13 11:47:30;;;;;;;5.20;3.73;;;31.20;1.00;;;;;;5066431;28;20466;-81
2023/08/13 11:49:59;;;;;;;3.50;2.60;;;32.90;1.00;;;;;;5067464;28;20468;-80
2023/08/13 11:52:26;;;;;;;3.00;2.37;;;35.10;1.00;;;;;;5067783;28;20463;-80
2023/08/13 11:54:57;;;;;;;4.20;3.33;;;37.10;1.00;;;;;;5066430;28;20452;-81
2023/08/13 11:57:24;;;;;;;2.57;2.37;;;38.70;1.00;;;;;;5066520;28;20551;-80
2023/08/13 11:59:51;;;;;;;2.93;2.63;;;39.90;1.00;;;;;;5070855;28;22447;-80
2023/08/13 12:02:21;;;;;;;2.80;2.50;;;40.70;1.00;;;;;;5065425;28;20416;-80
2023/08/13 12:04:49;;;;;;;2.37;1.97;;;41.30;1.00;;;;;;5067021;28;20467;-79
2023/08/13 12:07:16;;;;;;;3.40;2.23;;;41.80;1.00;;;;;;5067301;28;20561;-80
2023/08/13 12:09:43;;;;;;;4.20;2.40;;;42.10;1.00;;;;;;5072010;28;21170;-80
2023/08/13 12:12:12;;;;;;;3.43;2.57;;;42.30;1.00;;;;;;5071381;28;20475;-80
2023/08/13 12:14:46;;;;;;;2.87;2.37;;;42.60;1.00;;;;;;5077461;28;20483;-80
2023/08/13 12:17:14;;;;;;;3.17;2.60;;;42.00;1.00;;;;;;5070737;28;21016;-81
2023/08/13 12:19:42;;;;;;;2.70;2.50;;;41.50;1.00;;;;;;5069233;28;20554;-80
2023/08/13 12:22:09;;;;;;;3.60;2.87;;;40.80;1.00;;;;;;5069348;28;20425;-81
2023/08/13 12:24:36;;;;;;;2.70;2.50;;;40.30;1.00;;;;;;5073559;28;20466;-80
2023/08/13 12:27:03;;;;;;;3.00;2.73;;;40.90;1.00;;;;;;5073911;28;20431;-80
2023/08/13 12:29:35;;;;;;;3.20;2.77;;;41.20;1.00;;;;;;5069350;28;20478;-81
2023/08/13 12:32:02;;;;;;;2.87;2.67;;;41.10;1.00;;;;;;5070183;28;20478;-80
2023/08/13 12:34:29;;;;;;;2.53;2.33;;;40.70;1.00;;;;;;5072455;28;20476;-80
2023/08/13 12:36:56;;;;;;;2.77;2.53;;;41.00;1.00;;;;;;5076233;28;20471;-80
2023/08/13 12:39:23;;;;;;;3.53;2.33;;;40.60;1.00;;;;;;5070122;28;20475;-79
2023/08/13 12:41:51;;;;;;;2.27;2.07;;;40.90;1.00;;;;;;5072813;28;20567;-81
2023/08/13 12:44:19;;;;;;;2.40;2.20;;;41.10;1.00;;;;;;5072733;28;20475;-80
2023/08/13 12:46:47;;;;;;;3.43;2.73;;;41.20;1.00;;;;;;5075646;28;20491;-79
2023/08/13 12:49:16;;;;;;;2.63;2.23;;;40.40;1.00;;;;;;5074549;28;20526;-80
2023/08/13 12:51:43;;;;;;;2.40;2.20;;;40.50;1.00;;;;;;5071371;28;20534;-80
2023/08/13 12:54:10;;;;;;;3.00;2.33;;;41.10;1.00;;;;;;5071413;28;20427;-81
2023/08/13 12:56:37;;;;;;;3.57;2.60;;;41.50;1.00;;;;;;5069180;28;21386;-81
2023/08/13 12:59:04;;;;;;;2.73;2.20;;;41.50;1.00;;;;;;5073871;28;20471;-80
2023/08/13 13:01:31;;;;;;;2.87;2.67;;;40.80;1.00;;;;;;5069313;28;20500;-81